Time;durP1;ratioP1;P1;durP2;ratioP2;P2;SDS_P1;SDS_P2;PMS_P1;PMS_P2;Temp;Humidity;BMP_temperature;BMP_pressure;BME280_temperature;BME280_humidity;BME280_pressure;Samples;Min_cycle;Max_cycle;Signal;HPM_P1;HPM_P2
2023/07/24 00:02:55;;;;;;;8.85;4.03;;;;;;;;;;10559301;28;20434;-77
2023/07/24 00:07:58;;;;;;;9.55;4.70;;;;;;;;;;10565907;28;20028;-78
2023/07/24 00:13:03;;;;;;;9.80;4.40;;;;;;;;;;10572328;27;20055;-77
2023/07/24 00:18:05;;;;;;;10.73;4.35;;;;;;;;;;10570096;27;20526;-77
2023/07/24 00:23:08;;;;;;;11.13;4.50;;;;;;;;;;10565842;27;20051;-77
2023/07/24 00:28:12;;;;;;;9.00;4.28;;;;;;;;;;10560285;27;20575;-77
2023/07/24 00:33:15;;;;;;;10.02;4.60;;;;;;;;;;10537404;27;20061;-77
2023/07/24 00:38:18;;;;;;;12.63;5.17;;;;;;;;;;10559851;27;20050;-76
2023/07/24 00:43:22;;;;;;;9.35;4.18;;;;;;;;;;10575290;27;20396;-77
2023/07/24 00:48:24;;;;;;;10.20;3.92;;;;;;;;;;10567275;27;20078;-77
2023/07/24 00:53:27;;;;;;;12.30;4.70;;;;;;;;;;10573630;27;20454;-77
2023/07/24 00:58:31;;;;;;;11.10;4.57;;;;;;;;;;10579366;27;20119;-76
2023/07/24 01:03:35;;;;;;;11.60;4.32;;;;;;;;;;10575344;27;20551;-77
2023/07/24 01:08:38;;;;;;;9.60;3.95;;;;;;;;;;10568640;27;20044;-77
2023/07/24 01:13:44;;;;;;;11.20;4.27;;;;;;;;;;10576755;27;20054;-76
2023/07/24 01:18:47;;;;;;;10.90;4.20;;;;;;;;;;10559185;27;20626;-76
2023/07/24 01:23:56;;;;;;;10.52;4.50;;;;;;;;;;10556899;27;20479;-76
2023/07/24 01:29:00;;;;;;;12.57;4.60;;;;;;;;;;10565914;27;20046;-77
2023/07/24 01:34:02;;;;;;;11.70;4.80;;;;;;;;;;10560178;27;20583;-78
2023/07/24 01:39:05;;;;;;;9.13;4.27;;;;;;;;;;10559014;27;20104;-77
2023/07/24 01:44:09;;;;;;;9.53;4.43;;;;;;;;;;10547510;27;20515;-77
2023/07/24 01:49:12;;;;;;;10.75;4.68;;;;;;;;;;10563071;27;20362;-77
2023/07/24 01:54:14;;;;;;;8.40;4.23;;;;;;;;;;10563839;27;20044;-76
2023/07/24 01:59:19;;;;;;;10.75;4.50;;;;;;;;;;10567426;27;20058;-76
2023/07/24 02:04:22;;;;;;;10.85;4.90;;;;;;;;;;10561093;27;20059;-76
2023/07/24 02:09:24;;;;;;;12.88;5.15;;;;;;;;;;10562283;27;20040;-76
2023/07/24 02:14:29;;;;;;;11.77;4.80;;;;;;;;;;10566091;27;20039;-76
2023/07/24 02:19:31;;;;;;;10.68;4.57;;;;;;;;;;10557823;27;20044;-76
2023/07/24 02:24:34;;;;;;;11.73;4.43;;;;;;;;;;10556353;27;20139;-76
2023/07/24 02:29:38;;;;;;;9.43;4.28;;;;;;;;;;10564428;27;20043;-76
2023/07/24 02:34:41;;;;;;;13.23;5.63;;;;;;;;;;10565968;27;20119;-77
2023/07/24 02:39:44;;;;;;;12.23;4.83;;;;;;;;;;10564825;27;20114;-77
2023/07/24 02:44:48;;;;;;;15.48;5.85;;;;;;;;;;10555981;27;20027;-76
2023/07/24 02:49:51;;;;;;;11.40;5.00;;;;;;;;;;10604798;27;20047;-76
2023/07/24 02:54:54;;;;;;;12.07;5.60;;;;;;;;;;10605009;27;20058;-77
2023/07/24 02:59:58;;;;;;;13.63;5.25;;;;;;;;;;10602954;27;20559;-76
2023/07/24 03:05:00;;;;;;;13.88;5.57;;;;;;;;;;10602062;27;20597;-76
2023/07/24 03:10:04;;;;;;;11.25;5.18;;;;;;;;;;10599687;27;20051;-77
2023/07/24 03:15:07;;;;;;;;;;;;;;;;;;10597783;27;20171;-77
2023/07/24 03:20:17;;;;;;;14.67;5.87;;;;;;;;;;10601927;27;20106;-77
2023/07/24 03:25:20;;;;;;;14.85;6.05;;;;;;;;;;10603049;27;20126;-78
2023/07/24 03:30:24;;;;;;;14.82;6.15;;;;;;;;;;10603946;27;20035;-77
2023/07/24 03:35:29;;;;;;;14.75;5.82;;;;;;;;;;10596646;27;20069;-76
2023/07/24 03:40:31;;;;;;;15.05;6.90;;;;;;;;;;10606225;27;20464;-77
2023/07/24 03:45:34;;;;;;;13.67;6.37;;;;;;;;;;10605239;27;20035;-77
2023/07/24 03:50:38;;;;;;;15.80;6.97;;;;;;;;;;10605594;27;20063;-77
2023/07/24 03:55:41;;;;;;;16.55;6.30;;;;;;;;;;10601837;27;20045;-77
2023/07/24 04:00:44;;;;;;;18.65;6.47;;;;;;;;;;10605986;27;20561;-77
2023/07/24 04:05:48;;;;;;;15.00;6.03;;;;;;;;;;10605908;27;20050;-77
2023/07/24 04:10:52;;;;;;;16.55;6.00;;;;;;;;;;10606546;27;20035;-77
2023/07/24 04:15:54;;;;;;;13.45;5.47;;;;;;;;;;10613361;27;20050;-78
2023/07/24 04:20:58;;;;;;;16.13;6.57;;;;;;;;;;10605651;27;20139;-76
2023/07/24 04:26:01;;;;;;;16.00;5.43;;;;;;;;;;10603062;27;20035;-78
2023/07/24 04:31:03;;;;;;;15.63;5.57;;;;;;;;;;10606867;27;20035;-78
2023/07/24 04:36:07;;;;;;;14.73;5.90;;;;;;;;;;10593029;27;20042;-78
2023/07/24 04:41:10;;;;;;;17.63;6.47;;;;;;;;;;10608988;27;20114;-77
2023/07/24 04:46:13;;;;;;;15.03;5.67;;;;;;;;;;10603359;27;20049;-77
2023/07/24 04:51:18;;;;;;;15.30;5.33;;;;;;;;;;10599881;27;20039;-76
2023/07/24 04:56:21;;;;;;;14.45;5.43;;;;;;;;;;10605496;27;20404;-77
2023/07/24 05:01:23;;;;;;;15.93;6.32;;;;;;;;;;10595611;27;20157;-76
2023/07/24 05:06:28;;;;;;;10.80;4.20;;;;;;;;;;10610559;27;20507;-77
2023/07/24 05:11:31;;;;;;;14.25;5.45;;;;;;;;;;10584007;27;20044;-77
2023/07/24 05:16:34;;;;;;;11.50;4.93;;;;;;;;;;10610825;27;20140;-77
2023/07/24 05:21:38;;;;;;;11.30;4.00;;;;;;;;;;10606130;27;20069;-78
2023/07/24 05:26:40;;;;;;;15.00;5.70;;;;;;;;;;10609315;27;20031;-77
2023/07/24 05:31:44;;;;;;;15.03;5.57;;;;;;;;;;10610886;27;20047;-76
2023/07/24 05:36:46;;;;;;;;;;;;;;;;;;10601469;27;20042;-77
2023/07/24 05:41:50;;;;;;;11.93;4.70;;;;;;;;;;10599136;27;19934;-77
2023/07/24 05:46:53;;;;;;;10.75;3.83;;;;;;;;;;10605311;27;20661;-76
2023/07/24 05:51:56;;;;;;;8.87;3.83;;;;;;;;;;10602797;27;20104;-76
2023/07/24 05:56:59;;;;;;;;;;;;;;;;;;10610023;27;20665;-81
2023/07/24 06:02:03;;;;;;;12.48;4.38;;;;;;;;;;10604959;27;19918;-77
2023/07/24 06:07:06;;;;;;;13.00;4.95;;;;;;;;;;10597801;27;20501;-76
2023/07/24 06:12:08;;;;;;;13.67;5.43;;;;;;;;;;10619728;27;20213;-76
2023/07/24 06:17:12;;;;;;;14.07;5.05;;;;;;;;;;10605115;27;20305;-76
2023/07/24 06:22:15;;;;;;;13.93;6.22;;;;;;;;;;10601925;27;20114;-76
2023/07/24 06:27:17;;;;;;;10.70;4.65;;;;;;;;;;10600418;27;20047;-76
2023/07/24 06:32:21;;;;;;;10.15;4.20;;;;;;;;;;10604980;27;20078;-76
2023/07/24 06:37:24;;;;;;;7.55;3.45;;;;;;;;;;10603170;27;20085;-75
2023/07/24 06:42:27;;;;;;;11.00;4.75;;;;;;;;;;10600807;27;20047;-76
2023/07/24 06:47:31;;;;;;;13.52;5.10;;;;;;;;;;10602983;27;20077;-76
2023/07/24 06:52:34;;;;;;;8.05;3.70;;;;;;;;;;10600653;27;20548;-76
2023/07/24 06:57:36;;;;;;;11.07;4.85;;;;;;;;;;10600645;27;20035;-76
2023/07/24 07:02:40;;;;;;;11.23;4.35;;;;;;;;;;10609299;27;20500;-77
2023/07/24 07:07:43;;;;;;;12.80;5.47;;;;;;;;;;10609503;27;20557;-77
2023/07/24 07:12:46;;;;;;;8.57;3.17;;;;;;;;;;10595310;27;20182;-77
2023/07/24 07:17:50;;;;;;;14.15;6.03;;;;;;;;;;10606664;27;20039;-76
2023/07/24 07:22:52;;;;;;;13.90;6.43;;;;;;;;;;10593128;27;20043;-77
2023/07/24 07:27:55;;;;;;;;;;;;;;;;;;10598196;27;20050;-77
2023/07/24 07:32:59;;;;;;;15.80;7.43;;;;;;;;;;10598360;27;19926;-77
2023/07/24 07:38:02;;;;;;;11.90;5.97;;;;;;;;;;10597082;27;20039;-77
2023/07/24 07:43:05;;;;;;;15.48;6.35;;;;;;;;;;10612358;27;20282;-76
2023/07/24 07:48:09;;;;;;;13.32;5.85;;;;;;;;;;10602627;27;20032;-76
2023/07/24 07:53:12;;;;;;;13.90;5.97;;;;;;;;;;10588960;27;20079;-76
2023/07/24 07:58:15;;;;;;;10.75;5.03;;;;;;;;;;10601811;27;20463;-77
2023/07/24 08:03:19;;;;;;;16.60;7.25;;;;;;;;;;10585111;27;20052;-77
2023/07/24 08:08:22;;;;;;;15.05;5.28;;;;;;;;;;10597489;27;20407;-78
2023/07/24 08:13:24;;;;;;;15.27;5.80;;;;;;;;;;10594028;27;20039;-76
2023/07/24 08:18:28;;;;;;;18.08;6.20;;;;;;;;;;10589105;27;20123;-76
2023/07/24 08:23:33;;;;;;;12.27;5.43;;;;;;;;;;10595951;27;20508;-77
2023/07/24 08:28:36;;;;;;;13.95;5.70;;;;;;;;;;10594167;27;20170;-76
2023/07/24 08:33:40;;;;;;;14.82;5.47;;;;;;;;;;10600283;27;20038;-77
2023/07/24 08:38:43;;;;;;;12.27;4.80;;;;;;;;;;10603815;27;20563;-77
2023/07/24 08:43:46;;;;;;;;;;;;;;;;;;10597100;27;20483;-77
2023/07/24 08:48:50;;;;;;;13.35;5.32;;;;;;;;;;10605546;27;19919;-77
2023/07/24 08:53:53;;;;;;;11.23;4.88;;;;;;;;;;10597543;27;20376;-77
2023/07/24 08:58:56;;;;;;;;;;;;;;;;;;10600069;27;20047;-76
2023/07/24 09:04:00;;;;;;;9.85;3.95;;;;;;;;;;10593977;27;19929;-77
2023/07/24 09:09:03;;;;;;;13.88;3.70;;;;;;;;;;10586212;27;20150;-77
2023/07/24 09:14:06;;;;;;;14.88;5.65;;;;;;;;;;10600054;27;20126;-77
2023/07/24 09:19:23;;;;;;;15.35;5.18;;;;;;;;;;10603455;27;20039;-78
2023/07/24 09:24:28;;;;;;;11.85;4.97;;;;;;;;;;10610546;27;20164;-77
2023/07/24 09:29:31;;;;;;;13.90;4.78;;;;;;;;;;10600745;27;20150;-76
2023/07/24 09:34:35;;;;;;;13.48;5.43;;;;;;;;;;10601119;27;20329;-77
2023/07/24 09:39:40;;;;;;;13.05;5.20;;;;;;;;;;10604919;27;20126;-76
2023/07/24 09:44:43;;;;;;;13.60;5.60;;;;;;;;;;10603062;27;20103;-78
2023/07/24 09:49:47;;;;;;;12.25;5.00;;;;;;;;;;10604367;27;20126;-75
2023/07/24 09:54:55;;;;;;;5.90;2.67;;;;;;;;;;10589590;27;20070;-75
2023/07/24 09:59:57;;;;;;;9.88;4.60;;;;;;;;;;10594531;27;20124;-76
2023/07/24 10:05:02;;;;;;;6.10;2.92;;;;;;;;;;10597213;27;20549;-76
2023/07/24 10:10:05;;;;;;;7.25;3.83;;;;;;;;;;10598472;27;20070;-76
2023/07/24 10:15:08;;;;;;;8.10;3.20;;;;;;;;;;10603353;27;20071;-77
2023/07/24 10:20:17;;;;;;;9.55;3.42;;;;;;;;;;10600883;27;20027;-77
2023/07/24 10:25:30;;;;;;;6.20;2.78;;;;;;;;;;10598104;27;20039;-77
2023/07/24 10:30:33;;;;;;;9.13;3.55;;;;;;;;;;10595665;27;20127;-76
2023/07/24 10:35:39;;;;;;;8.40;4.13;;;;;;;;;;10589883;27;20103;-77
2023/07/24 10:40:44;;;;;;;6.07;3.17;;;;;;;;;;10592819;27;20063;-78
2023/07/24 10:45:48;;;;;;;7.97;3.08;;;;;;;;;;10592238;27;20071;-78
2023/07/24 10:50:53;;;;;;;9.20;4.20;;;;;;;;;;10587069;27;20054;-78
2023/07/24 10:55:57;;;;;;;6.45;3.10;;;;;;;;;;10597652;27;20095;-77
2023/07/24 11:01:00;;;;;;;9.38;3.60;;;;;;;;;;10580018;27;20048;-77
2023/07/24 11:06:05;;;;;;;8.23;3.80;;;;;;;;;;10607874;27;20454;-77
2023/07/24 11:11:08;;;;;;;7.70;3.70;;;;;;;;;;10602232;27;20073;-77
2023/07/24 11:16:11;;;;;;;10.98;4.93;;;;;;;;;;10598758;27;20103;-78
2023/07/24 11:21:16;;;;;;;7.20;4.05;;;;;;;;;;10605262;27;20069;-77
2023/07/24 11:26:20;;;;;;;6.88;4.00;;;;;;;;;;10591445;27;20472;-77
2023/07/24 11:31:22;;;;;;;7.82;3.78;;;;;;;;;;10601057;27;20224;-81
2023/07/24 11:36:27;;;;;;;7.68;4.10;;;;;;;;;;10595198;27;20050;-77
2023/07/24 11:41:33;;;;;;;7.53;4.10;;;;;;;;;;10600455;27;20121;-78
2023/07/24 11:46:36;;;;;;;8.82;3.90;;;;;;;;;;10595407;27;20044;-77
2023/07/24 11:51:40;;;;;;;6.22;3.75;;;;;;;;;;10596975;27;20491;-78
2023/07/24 11:56:43;;;;;;;7.15;3.90;;;;;;;;;;10597138;27;20039;-77
2023/07/24 12:01:47;;;;;;;6.78;3.72;;;;;;;;;;10617866;27;20074;-77
2023/07/24 12:06:52;;;;;;;5.97;3.13;;;;;;;;;;10602651;27;20061;-77
2023/07/24 12:11:59;;;;;;;6.95;3.40;;;;;;;;;;10616522;27;20414;-76
2023/07/24 12:17:02;;;;;;;6.57;3.50;;;;;;;;;;10606887;27;20255;-77
2023/07/24 12:22:07;;;;;;;8.10;3.72;;;;;;;;;;10609846;27;20200;-78
2023/07/24 12:27:09;;;;;;;8.02;3.80;;;;;;;;;;10605152;27;20047;-77
2023/07/24 12:32:13;;;;;;;8.57;3.78;;;;;;;;;;10603249;27;20075;-76
2023/07/24 12:37:17;;;;;;;6.57;3.30;;;;;;;;;;10609218;27;20466;-77
2023/07/24 12:42:20;;;;;;;9.35;3.78;;;;;;;;;;10607000;27;20039;-77
2023/07/24 12:47:22;;;;;;;8.02;3.67;;;;;;;;;;10608505;27;20598;-77
2023/07/24 12:52:27;;;;;;;6.60;3.83;;;;;;;;;;10609123;27;20096;-76
2023/07/24 12:57:29;;;;;;;7.18;3.90;;;;;;;;;;10602374;27;20039;-75
2023/07/24 13:02:32;;;;;;;9.25;4.03;;;;;;;;;;10607530;27;20126;-77
2023/07/24 13:07:36;;;;;;;10.02;3.90;;;;;;;;;;10610400;27;20054;-76
2023/07/24 13:12:39;;;;;;;8.38;3.78;;;;;;;;;;10600378;27;20706;-78
2023/07/24 13:17:41;;;;;;;;;;;;;;;;;;10604705;27;20043;-75
2023/07/24 13:22:48;;;;;;;7.43;3.40;;;;;;;;;;10581094;27;19927;-75
2023/07/24 13:27:52;;;;;;;6.70;2.97;;;;;;;;;;10597205;27;20039;-76
2023/07/24 13:32:55;;;;;;;8.18;3.67;;;;;;;;;;10596324;27;20138;-77
2023/07/24 13:38:00;;;;;;;7.88;3.42;;;;;;;;;;10603049;27;20315;-76
2023/07/24 13:43:03;;;;;;;7.10;2.85;;;;;;;;;;10604504;27;20063;-76
2023/07/24 13:48:06;;;;;;;7.60;3.78;;;;;;;;;;10601932;27;20042;-77
2023/07/24 13:53:10;;;;;;;8.18;3.63;;;;;;;;;;10600005;27;20446;-77
2023/07/24 13:58:13;;;;;;;11.02;3.00;;;;;;;;;;10590551;27;20042;-77
2023/07/24 14:03:16;;;;;;;9.65;3.55;;;;;;;;;;10616065;27;20043;-76
2023/07/24 14:08:20;;;;;;;8.13;3.30;;;;;;;;;;10598745;27;20043;-75
2023/07/24 14:13:23;;;;;;;6.57;3.42;;;;;;;;;;10604159;27;20128;-75
2023/07/24 14:18:26;;;;;;;;;;;;;;;;;;10602419;27;20050;-74
2023/07/24 14:23:30;;;;;;;5.80;2.90;;;;;;;;;;10605751;27;20398;-73
2023/07/24 14:28:33;;;;;;;6.78;3.33;;;;;;;;;;10600321;27;20043;-75
2023/07/24 14:33:36;;;;;;;7.47;3.10;;;;;;;;;;10600467;27;20062;-75
2023/07/24 14:38:40;;;;;;;4.68;2.40;;;;;;;;;;10610848;27;20162;-75
2023/07/24 14:43:43;;;;;;;8.38;3.58;;;;;;;;;;10607281;27;20043;-75
2023/07/24 14:48:46;;;;;;;4.35;2.20;;;;;;;;;;10607275;27;20139;-75
2023/07/24 14:53:50;;;;;;;3.05;1.48;;;;;;;;;;10605417;27;20045;-75
2023/07/24 14:58:53;;;;;;;4.65;2.13;;;;;;;;;;10601090;27;20066;-76
2023/07/24 15:03:57;;;;;;;4.90;2.38;;;;;;;;;;10601447;27;20614;-74
2023/07/24 15:09:01;;;;;;;5.38;2.42;;;;;;;;;;10615872;27;20038;-75
2023/07/24 15:14:04;;;;;;;7.88;2.75;;;;;;;;;;10614485;27;20101;-75
2023/07/24 15:19:07;;;;;;;5.80;2.40;;;;;;;;;;10617943;27;20058;-74
2023/07/24 15:24:11;;;;;;;4.72;2.50;;;;;;;;;;10606840;27;20054;-74
2023/07/24 15:29:16;;;;;;;5.03;2.20;;;;;;;;;;10609302;27;20052;-76
2023/07/24 15:34:21;;;;;;;3.83;2.03;;;;;;;;;;10601411;27;20568;-75
2023/07/24 15:39:25;;;;;;;4.80;2.40;;;;;;;;;;10611510;27;20057;-74
2023/07/24 15:44:28;;;;;;;5.53;2.45;;;;;;;;;;10609094;27;20073;-74
2023/07/24 15:49:31;;;;;;;4.05;2.15;;;;;;;;;;10604121;27;20047;-74
2023/07/24 15:54:33;;;;;;;;;;;;;;;;;;10605198;27;20170;-77
2023/07/24 15:59:37;;;;;;;4.73;2.70;;;;;;;;;;10594911;27;19928;-75
2023/07/24 16:04:40;;;;;;;8.05;4.00;;;;;;;;;;10594995;27;20293;-76
2023/07/24 16:09:43;;;;;;;19.35;7.75;;;;;;;;;;10596894;27;20116;-76
2023/07/24 16:14:48;;;;;;;9.52;3.72;;;;;;;;;;10598667;27;20039;-77
2023/07/24 16:19:51;;;;;;;11.00;4.30;;;;;;;;;;10604910;27;20565;-76
2023/07/24 16:24:53;;;;;;;12.35;5.22;;;;;;;;;;10594289;27;20046;-76
2023/07/24 16:30:01;;;;;;;6.30;2.53;;;;;;;;;;10597217;27;20040;-75
2023/07/24 16:35:03;;;;;;;7.90;3.55;;;;;;;;;;10600136;27;20054;-75
2023/07/24 16:40:08;;;;;;;5.38;2.58;;;;;;;;;;10608998;27;20042;-74
2023/07/24 16:45:13;;;;;;;6.95;3.45;;;;;;;;;;10603050;27;20050;-75
2023/07/24 16:50:36;;;;;;;6.25;2.63;;;;;;;;;;10600941;27;20046;-75
2023/07/24 16:55:38;;;;;;;;;;;;;;;;;;10599598;27;20039;-75
2023/07/24 17:00:42;;;;;;;5.38;2.60;;;;;;;;;;10604196;27;19962;-76
2023/07/24 17:05:46;;;;;;;8.50;4.53;;;;;;;;;;10601932;27;20051;-75
2023/07/24 17:10:49;;;;;;;2.22;1.10;;;;;;;;;;10615206;27;20500;-80
2023/07/24 17:15:54;;;;;;;4.32;2.08;;;;;;;;;;10617508;27;20039;-80
2023/07/24 17:20:58;;;;;;;6.43;2.30;;;;;;;;;;10619858;27;20269;-80
2023/07/24 17:26:01;;;;;;;5.88;2.28;;;;;;;;;;10630811;27;20389;-80
2023/07/24 17:31:05;;;;;;;4.72;2.30;;;;;;;;;;10606418;27;20046;-80
2023/07/24 17:36:08;;;;;;;5.40;1.92;;;;;;;;;;10616612;27;20073;-80
2023/07/24 17:41:13;;;;;;;6.97;2.85;;;;;;;;;;10618802;27;20043;-80
2023/07/24 17:46:17;;;;;;;6.88;2.90;;;;;;;;;;10632201;27;20070;-81
2023/07/24 17:51:20;;;;;;;7.40;3.22;;;;;;;;;;10610658;27;20511;-81
2023/07/24 17:56:23;;;;;;;7.70;3.42;;;;;;;;;;10609837;27;20114;-81
2023/07/24 18:01:28;;;;;;;10.60;4.40;;;;;;;;;;10612745;27;20083;-80
2023/07/24 18:06:31;;;;;;;8.88;3.90;;;;;;;;;;10620101;27;20167;-79
2023/07/24 18:11:34;;;;;;;9.00;3.23;;;;;;;;;;10617913;27;20030;-79
2023/07/24 18:16:38;;;;;;;7.63;3.50;;;;;;;;;;10610900;27;20087;-79
2023/07/24 18:21:41;;;;;;;5.97;2.85;;;;;;;;;;10619574;27;20484;-81
2023/07/24 18:26:44;;;;;;;10.25;3.92;;;;;;;;;;10617844;27;20062;-80
2023/07/24 18:31:48;;;;;;;8.00;3.67;;;;;;;;;;10619657;27;20545;-83
2023/07/24 18:36:51;;;;;;;6.32;2.35;;;;;;;;;;10610357;27;20047;-81
2023/07/24 18:41:55;;;;;;;4.32;2.03;;;;;;;;;;10617805;27;20031;-81
2023/07/24 18:47:00;;;;;;;9.45;3.28;;;;;;;;;;10627304;27;20154;-80
2023/07/24 18:52:02;;;;;;;7.30;3.28;;;;;;;;;;10617624;27;20054;-80
2023/07/24 18:57:05;;;;;;;7.75;3.20;;;;;;;;;;10628069;27;20043;-83
2023/07/24 19:02:10;;;;;;;8.07;3.63;;;;;;;;;;10625890;27;20054;-82
2023/07/24 19:07:12;;;;;;;10.73;4.45;;;;;;;;;;10597144;27;20384;-84
2023/07/24 19:12:16;;;;;;;13.38;4.68;;;;;;;;;;10611177;27;20054;-83
2023/07/24 19:17:20;;;;;;;8.82;3.50;;;;;;;;;;10612661;27;20055;-85
2023/07/24 19:22:23;;;;;;;12.77;5.78;;;;;;;;;;10607162;27;20062;-85
2023/07/24 19:27:26;;;;;;;12.10;5.47;;;;;;;;;;10612640;27;20055;-87
2023/07/24 19:32:30;;;;;;;11.50;4.73;;;;;;;;;;10609793;27;20043;-84
2023/07/24 19:37:33;;;;;;;11.10;4.35;;;;;;;;;;10610023;27;20043;-85
2023/07/24 19:42:37;;;;;;;7.55;2.97;;;;;;;;;;10612203;27;20125;-85
2023/07/24 19:47:42;;;;;;;7.93;3.85;;;;;;;;;;10615747;27;20076;-78
2023/07/24 19:52:48;;;;;;;8.20;3.78;;;;;;;;;;10621697;27;20039;-77
2023/07/24 19:57:51;;;;;;;9.32;4.45;;;;;;;;;;10613946;27;20486;-81
2023/07/24 20:02:56;;;;;;;9.32;4.40;;;;;;;;;;10610273;27;20051;-78
2023/07/24 20:07:59;;;;;;;9.60;5.07;;;;;;;;;;10608915;27;20055;-79
2023/07/24 20:13:02;;;;;;;8.45;3.83;;;;;;;;;;10604268;27;20149;-80
2023/07/24 20:18:06;;;;;;;9.73;4.30;;;;;;;;;;10601249;27;20155;-78
2023/07/24 20:23:09;;;;;;;7.35;3.33;;;;;;;;;;10607470;27;20289;-78
2023/07/24 20:28:13;;;;;;;5.70;2.63;;;;;;;;;;10601051;27;20046;-77
2023/07/24 20:33:17;;;;;;;9.38;4.63;;;;;;;;;;10610357;27;20107;-78
2023/07/24 20:38:24;;;;;;;7.25;2.95;;;;;;;;;;10613148;27;20070;-78
2023/07/24 20:43:27;;;;;;;6.47;2.28;;;;;;;;;;10614486;27;20047;-77
2023/07/24 20:48:31;;;;;;;3.28;2.30;;;;;;;;;;10619590;27;20499;-78
2023/07/24 20:53:34;;;;;;;5.57;2.65;;;;;;;;;;10618446;27;20052;-78
2023/07/24 20:58:39;;;;;;;6.40;2.47;;;;;;;;;;10627765;27;20162;-77
2023/07/24 21:03:43;;;;;;;7.10;2.78;;;;;;;;;;10611418;27;20042;-77
2023/07/24 21:08:46;;;;;;;8.13;3.28;;;;;;;;;;10610930;27;20043;-79
2023/07/24 21:13:50;;;;;;;4.50;1.77;;;;;;;;;;10614449;27;20135;-78
2023/07/24 21:18:54;;;;;;;5.28;2.65;;;;;;;;;;10612312;27;20544;-77
2023/07/24 21:23:57;;;;;;;6.57;2.72;;;;;;;;;;10612314;27;20047;-79
2023/07/24 21:29:00;;;;;;;6.43;3.22;;;;;;;;;;10607523;27;20092;-79
2023/07/24 21:34:04;;;;;;;4.32;2.05;;;;;;;;;;10614696;27;20061;-78
2023/07/24 21:39:07;;;;;;;6.07;2.63;;;;;;;;;;10618122;27;20096;-78
2023/07/24 21:44:10;;;;;;;;;;;;;;;;;;10612841;27;20048;-78
2023/07/24 21:49:15;;;;;;;6.90;3.00;;;;;;;;;;10594384;27;20081;-78
2023/07/24 21:54:17;;;;;;;7.68;2.92;;;;;;;;;;10596105;27;20129;-79
2023/07/24 21:59:20;;;;;;;3.92;2.03;;;;;;;;;;10592057;27;20517;-77
2023/07/24 22:04:24;;;;;;;6.65;3.13;;;;;;;;;;10607055;27;20051;-77
2023/07/24 22:09:27;;;;;;;6.22;2.85;;;;;;;;;;10604506;27;20039;-77
2023/07/24 22:14:30;;;;;;;5.90;2.63;;;;;;;;;;10610035;27;20039;-78
2023/07/24 22:19:34;;;;;;;5.50;2.88;;;;;;;;;;10602691;27;20143;-79
2023/07/24 22:24:39;;;;;;;2.58;1.30;;;;;;;;;;10603736;27;20097;-78
2023/07/24 22:29:41;;;;;;;4.85;2.33;;;;;;;;;;10616656;27;20537;-77
2023/07/24 22:34:48;;;;;;;6.47;2.13;;;;;;;;;;10607751;27;20043;-78
2023/07/24 22:39:52;;;;;;;7.75;2.40;;;;;;;;;;10611819;27;20099;-78
2023/07/24 22:44:55;;;;;;;4.38;2.50;;;;;;;;;;10617758;27;20051;-78
2023/07/24 22:49:59;;;;;;;6.20;2.88;;;;;;;;;;10599975;27;20463;-79
2023/07/24 22:55:02;;;;;;;4.47;2.50;;;;;;;;;;10605762;27;20045;-77
2023/07/24 23:00:05;;;;;;;5.68;2.92;;;;;;;;;;10603901;27;20039;-77
2023/07/24 23:05:10;;;;;;;7.47;3.08;;;;;;;;;;10602389;27;20046;-77
2023/07/24 23:10:13;;;;;;;2.60;1.50;;;;;;;;;;10614177;27;20539;-77
2023/07/24 23:15:16;;;;;;;5.35;2.47;;;;;;;;;;10609810;27;20654;-78
2023/07/24 23:20:21;;;;;;;4.35;1.98;;;;;;;;;;10608439;27;20044;-77
2023/07/24 23:25:24;;;;;;;9.07;2.95;;;;;;;;;;10605999;27;20062;-76
2023/07/24 23:30:27;;;;;;;5.50;2.85;;;;;;;;;;10608176;27;20110;-78
2023/07/24 23:35:33;;;;;;;4.95;2.60;;;;;;;;;;10618875;27;20130;-77
2023/07/24 23:40:36;;;;;;;5.10;2.42;;;;;;;;;;10618260;27;20042;-77
2023/07/24 23:45:38;;;;;;;6.00;2.40;;;;;;;;;;10612070;27;20096;-78
2023/07/24 23:50:43;;;;;;;4.43;2.03;;;;;;;;;;10599800;27;20461;-78
2023/07/24 23:55:46;;;;;;;5.97;3.00;;;;;;;;;;10610914;27;20074;-77
